Terminal Aerodrome Forecast
Issued by NWS

Home | Current Version | Previous Version | Text Only | Print | Product List | Glossary On
Versions: 1 2 3 4 5 6 7 8 9 10 11 12 13 14 15 16 17 18 19 20
000
FTUS46 KHNX 010520
TAFMER
TAF
KMER 010520Z 0106/0206 VRB04KT 3SM HZ SKC
     FM010600 00000KT 2SM BR SCT005
     FM010900 00000KT 3/4SM BR OVC003
     FM011200 00000KT 1/4SM FG VV001
     FM011700 VRB03KT 1SM BR BKN006
     FM011900 VRB03KT 2SM HZ SCT006
     FM012100 VRB03KT 4SM HZ SKC=

USA.gov is the U.S. government's official web portal to all federal, state and local government web resources and services.